Time;durP1;ratioP1;P1;durP2;ratioP2;P2;SDS_P1;SDS_P2;PMS_P1;PMS_P2;Temp;Humidity;BMP_temperature;BMP_pressure;BME280_temperature;BME280_humidity;BME280_pressure;Samples;Min_cycle;Max_cycle;Signal;HPM_P1;HPM_P2
2021/09/05 00:04:05;;;;;;;8.10;7.40;;;17.40;99.90;;;;;;10525295;28;20239;-82
2021/09/05 00:09:07;;;;;;;7.80;7.20;;;17.40;99.90;;;;;;10508565;28;20227;-82
2021/09/05 00:14:11;;;;;;;7.70;7.00;;;17.40;99.90;;;;;;10532815;22;20271;-83
2021/09/05 00:19:13;;;;;;;7.57;6.87;;;17.40;99.90;;;;;;10489272;28;20279;-83
2021/09/05 00:24:15;;;;;;;7.97;7.23;;;17.40;99.90;;;;;;10523462;28;20245;-83
2021/09/05 00:29:19;;;;;;;7.70;6.97;;;17.30;99.90;;;;;;10532014;28;20208;-83
2021/09/05 00:34:21;;;;;;;7.97;7.30;;;17.30;99.90;;;;;;10530227;28;20215;-83
2021/09/05 00:39:24;;;;;;;7.33;6.70;;;17.30;99.90;;;;;;10529808;28;20204;-83
2021/09/05 00:44:27;;;;;;;7.97;7.37;;;17.20;99.90;;;;;;10529084;28;20585;-83
2021/09/05 00:49:29;;;;;;;8.43;7.73;;;17.10;99.90;;;;;;10546711;28;20214;-83
2021/09/05 00:54:32;;;;;;;7.50;6.90;;;17.10;99.90;;;;;;10575773;28;20211;-84
2021/09/05 00:59:35;;;;;;;7.67;6.97;;;17.10;99.90;;;;;;10515874;28;20271;-83
2021/09/05 01:04:39;;;;;;;7.30;6.70;;;17.00;99.90;;;;;;10474173;28;20315;-83
2021/09/05 01:09:43;;;;;;;8.43;7.70;;;17.10;99.90;;;;;;10513347;28;20287;-83
2021/09/05 01:14:48;;;;;;;7.60;7.00;;;17.00;99.90;;;;;;10517777;28;20234;-83
2021/09/05 01:19:52;;;;;;;9.37;8.57;;;17.00;99.90;;;;;;10527254;28;20214;-83
2021/09/05 01:25:23;;;;;;;8.50;7.77;;;17.00;99.90;;;;;;10540271;28;20288;-82
2021/09/05 01:30:27;;;;;;;11.07;8.83;;;17.00;99.90;;;;;;10528207;28;20223;-83
2021/09/05 01:35:55;;;;;;;7.63;6.93;;;17.00;99.90;;;;;;10546912;28;20570;-84
2021/09/05 01:41:20;;;;;;;9.20;8.40;;;16.90;99.90;;;;;;10507101;28;20299;-82
2021/09/05 01:46:53;;;;;;;8.60;7.80;;;16.90;99.90;;;;;;10532877;28;20220;-83
2021/09/05 01:52:13;;;;;;;9.80;8.93;;;16.90;99.90;;;;;;10571313;28;20662;-83
2021/09/05 01:57:38;;;;;;;8.90;8.20;;;16.80;99.90;;;;;;10570227;28;20202;-83
2021/09/05 02:02:44;;;;;;;8.40;7.70;;;16.80;99.90;;;;;;10587231;28;20226;-82
2021/09/05 02:08:06;;;;;;;8.40;7.70;;;16.80;99.90;;;;;;10572287;28;20327;-83
2021/09/05 02:13:34;;;;;;;9.70;8.80;;;16.80;99.90;;;;;;10592763;28;20231;-83
2021/09/05 02:18:56;;;;;;;8.63;7.93;;;16.70;99.90;;;;;;10559992;28;20207;-83
2021/09/05 02:24:31;;;;;;;8.17;7.43;;;16.70;99.90;;;;;;10465080;28;20332;-82
2021/09/05 02:29:52;;;;;;;9.63;8.73;;;16.60;99.90;;;;;;10528132;28;20221;-83
2021/09/05 02:35:15;;;;;;;10.77;8.00;;;16.60;99.90;;;;;;10528146;28;20606;-82
2021/09/05 02:40:53;;;;;;;10.63;9.00;;;16.60;99.90;;;;;;10526815;28;20200;-83
2021/09/05 02:46:33;;;;;;;10.23;8.63;;;16.60;99.90;;;;;;10531678;28;20306;-83
2021/09/05 02:51:54;;;;;;;8.73;8.00;;;16.60;99.90;;;;;;10489456;28;20700;-84
2021/09/05 02:57:17;;;;;;;8.90;8.10;;;16.50;99.90;;;;;;10503708;28;20205;-83
2021/09/05 03:02:43;;;;;;;9.10;8.30;;;16.50;99.90;;;;;;10485141;28;20228;-83
2021/09/05 03:08:05;;;;;;;9.87;8.97;;;16.40;99.90;;;;;;10469856;28;20197;-83
2021/09/05 03:13:23;;;;;;;9.80;8.90;;;16.40;99.90;;;;;;10494685;28;20224;-83
2021/09/05 03:18:54;;;;;;;10.23;9.43;;;16.40;99.90;;;;;;10472600;28;20218;-83
2021/09/05 03:24:30;;;;;;;9.10;8.30;;;16.40;99.90;;;;;;10520147;28;20323;-83
2021/09/05 03:29:51;;;;;;;9.73;8.90;;;16.40;99.90;;;;;;10539090;28;20215;-83
2021/09/05 03:35:26;;;;;;;11.00;9.47;;;16.30;99.90;;;;;;10510518;28;20246;-83
2021/09/05 03:40:49;;;;;;;9.43;8.73;;;16.30;99.90;;;;;;10552306;28;20192;-84
2021/09/05 03:46:29;;;;;;;8.90;8.20;;;16.30;99.90;;;;;;10534181;28;20230;-83
2021/09/05 03:51:58;;;;;;;10.07;9.17;;;16.30;99.90;;;;;;10491470;28;20662;-83
2021/09/05 03:57:02;;;;;;;9.33;8.43;;;16.30;99.90;;;;;;10494401;28;20655;-83
2021/09/05 04:02:05;;;;;;;9.27;8.40;;;16.30;99.90;;;;;;10489037;28;20611;-83
2021/09/05 04:07:11;;;;;;;8.70;7.90;;;16.30;99.90;;;;;;10511805;28;20223;-82
2021/09/05 04:12:14;;;;;;;10.10;9.17;;;16.20;99.90;;;;;;10481062;28;20227;-83
2021/09/05 04:17:16;;;;;;;9.30;8.60;;;16.30;99.90;;;;;;10452356;28;20201;-83
2021/09/05 04:22:18;;;;;;;12.90;9.07;;;16.20;99.90;;;;;;10491499;28;20196;-83
2021/09/05 04:27:22;;;;;;;9.83;8.93;;;16.20;99.90;;;;;;10475836;28;20196;-82
2021/09/05 04:32:24;;;;;;;10.80;9.70;;;16.20;99.90;;;;;;10493433;28;20450;-83
2021/09/05 04:37:26;;;;;;;10.10;9.20;;;16.10;99.90;;;;;;10491412;28;20211;-83
2021/09/05 04:42:29;;;;;;;9.17;8.37;;;16.10;99.90;;;;;;10491613;28;20221;-83
2021/09/05 04:47:32;;;;;;;9.43;8.70;;;16.10;99.90;;;;;;10505154;28;20746;-82
2021/09/05 04:52:34;;;;;;;9.50;8.70;;;16.20;99.90;;;;;;10449078;28;20237;-83
2021/09/05 04:57:37;;;;;;;10.57;9.67;;;16.20;99.90;;;;;;10431408;28;20296;-83
2021/09/05 05:02:39;;;;;;;10.40;9.50;;;16.20;99.90;;;;;;10431773;28;20221;-83
2021/09/05 05:07:41;;;;;;;10.10;9.20;;;16.20;99.90;;;;;;10446610;28;20544;-83
2021/09/05 05:12:45;;;;;;;9.47;8.57;;;16.20;99.90;;;;;;10447026;28;20229;-83
2021/09/05 05:17:47;;;;;;;9.30;8.50;;;16.20;99.90;;;;;;10438002;28;20212;-84
2021/09/05 05:22:49;;;;;;;9.23;8.53;;;16.20;99.90;;;;;;10488613;28;20216;-84
2021/09/05 05:27:52;;;;;;;10.63;9.63;;;16.20;99.90;;;;;;10508687;28;20276;-83
2021/09/05 05:32:55;;;;;;;9.63;8.83;;;16.20;99.90;;;;;;10473215;28;20601;-83
2021/09/05 05:37:57;;;;;;;10.80;9.83;;;16.20;99.90;;;;;;10474594;28;20208;-83
2021/09/05 05:43:02;;;;;;;11.50;10.00;;;16.20;99.90;;;;;;10508506;28;20212;-84
2021/09/05 05:48:04;;;;;;;9.70;8.80;;;16.20;99.90;;;;;;10466605;28;20209;-83
2021/09/05 05:53:06;;;;;;;10.33;9.43;;;16.20;99.90;;;;;;10449580;28;20672;-83
2021/09/05 05:58:10;;;;;;;11.07;10.17;;;16.20;99.90;;;;;;10448451;28;20287;-83
2021/09/05 06:03:12;;;;;;;10.90;10.00;;;16.30;99.90;;;;;;10447591;28;20304;-84
2021/09/05 06:08:15;;;;;;;11.70;10.53;;;16.30;99.90;;;;;;10431570;28;20209;-83
2021/09/05 06:13:19;;;;;;;11.73;10.60;;;16.40;99.90;;;;;;10462541;23;20229;-80
2021/09/05 06:18:21;;;;;;;11.13;10.20;;;16.40;99.90;;;;;;10455775;28;20668;-81
2021/09/05 06:23:23;;;;;;;11.27;10.33;;;16.50;99.90;;;;;;10461255;28;20271;-80
2021/09/05 06:28:27;;;;;;;10.80;9.90;;;16.50;99.90;;;;;;10439339;28;20197;-80
2021/09/05 06:33:29;;;;;;;11.80;10.80;;;16.60;99.90;;;;;;10436679;28;20490;-80
2021/09/05 06:38:31;;;;;;;12.50;11.43;;;16.70;99.90;;;;;;10438125;28;20200;-81
2021/09/05 06:43:34;;;;;;;10.97;9.90;;;16.70;99.90;;;;;;10441069;28;20304;-80
2021/09/05 06:48:36;;;;;;;12.27;11.13;;;16.80;99.90;;;;;;10441649;28;20240;-80
2021/09/05 06:53:40;;;;;;;11.30;10.30;;;16.90;99.90;;;;;;10442760;28;20306;-80
2021/09/05 06:58:43;;;;;;;11.47;10.47;;;16.90;99.90;;;;;;10459534;28;20223;-80
2021/09/05 07:03:45;;;;;;;12.57;11.17;;;17.00;99.90;;;;;;10443982;28;20219;-80
2021/09/05 07:08:47;;;;;;;11.17;10.17;;;17.10;99.90;;;;;;10443532;28;20578;-80
2021/09/05 07:13:51;;;;;;;11.70;10.70;;;17.20;99.90;;;;;;10468259;28;20684;-81
2021/09/05 07:18:53;;;;;;;12.13;10.93;;;17.30;99.90;;;;;;10484842;28;20664;-81
2021/09/05 07:23:55;;;;;;;12.57;11.37;;;17.40;99.90;;;;;;10502901;28;20286;-80
2021/09/05 07:28:59;;;;;;;12.10;11.00;;;17.50;99.90;;;;;;10502370;28;20252;-80
2021/09/05 07:34:01;;;;;;;16.23;11.30;;;17.60;99.90;;;;;;10483440;28;20216;-80
2021/09/05 07:39:03;;;;;;;11.37;10.37;;;17.70;99.90;;;;;;10484335;28;20201;-81
2021/09/05 07:44:07;;;;;;;10.97;9.87;;;17.80;99.90;;;;;;10500849;28;20810;-81
2021/09/05 07:49:09;;;;;;;11.10;10.20;;;17.90;99.90;;;;;;10397306;28;20220;-80
2021/09/05 07:54:11;;;;;;;11.60;10.40;;;17.90;99.90;;;;;;10355476;28;20243;-81
2021/09/05 07:59:14;;;;;;;10.67;9.67;;;18.10;99.90;;;;;;10290067;28;20235;-81
2021/09/05 08:04:16;;;;;;;10.23;9.33;;;18.30;99.90;;;;;;10353722;28;20216;-80
2021/09/05 08:09:18;;;;;;;11.50;10.40;;;18.50;99.90;;;;;;10505873;28;20556;-80
2021/09/05 08:14:39;;;;;;;10.33;9.40;;;18.70;99.90;;;;;;10515721;23;20228;-81
2021/09/05 08:26:29;;;;;;;10.00;9.10;;;18.90;99.90;;;;;;10470211;28;20213;-80
2021/09/05 08:31:33;;;;;;;11.30;10.20;;;19.00;99.90;;;;;;10481753;28;20242;-81
2021/09/05 08:36:35;;;;;;;10.33;9.40;;;19.10;99.90;;;;;;10491632;28;20339;-80
2021/09/05 08:41:39;;;;;;;10.70;9.60;;;19.20;99.90;;;;;;10531660;28;20246;-80
2021/09/05 08:46:42;;;;;;;10.43;9.40;;;19.30;99.90;;;;;;10452203;28;20225;-80
2021/09/05 08:51:45;;;;;;;8.90;8.20;;;19.30;99.90;;;;;;10476276;28;20223;-80
2021/09/05 08:56:50;;;;;;;9.80;9.10;;;19.40;99.90;;;;;;10479476;28;20247;-81
2021/09/05 09:01:55;;;;;;;9.77;9.00;;;19.50;99.90;;;;;;10500710;28;20200;-81
2021/09/05 09:06:57;;;;;;;10.80;9.80;;;19.50;99.90;;;;;;10517626;28;20633;-80
2021/09/05 09:12:00;;;;;;;10.80;9.10;;;19.60;99.90;;;;;;10500302;28;20202;-80
2021/09/05 09:17:04;;;;;;;9.53;8.73;;;19.70;99.90;;;;;;10530267;28;20224;-80
2021/09/05 09:22:06;;;;;;;9.30;8.50;;;19.70;99.90;;;;;;10479294;28;20589;-80
2021/09/05 09:27:09;;;;;;;9.80;8.83;;;19.80;99.90;;;;;;10481716;28;20323;-81
2021/09/05 09:32:20;;;;;;;9.07;8.37;;;19.90;99.90;;;;;;10463372;28;20565;-81
2021/09/05 09:37:24;;;;;;;8.20;7.60;;;20.10;99.90;;;;;;10461639;28;20232;-81
2021/09/05 09:42:33;;;;;;;8.77;8.13;;;20.30;99.90;;;;;;10478212;28;20281;-80
2021/09/05 09:47:46;;;;;;;8.40;7.70;;;20.60;99.90;;;;;;10495845;28;20192;-80
2021/09/05 09:52:48;;;;;;;7.43;6.83;;;20.90;99.90;;;;;;10478524;28;20550;-81
2021/09/05 09:57:52;;;;;;;7.53;6.93;;;21.40;99.90;;;;;;10477942;28;20206;-80
2021/09/05 10:02:56;;;;;;;7.10;6.50;;;21.80;99.90;;;;;;10477489;28;20243;-80
2021/09/05 10:07:59;;;;;;;6.27;5.87;;;22.30;99.90;;;;;;10461511;28;20745;-81
2021/09/05 10:13:03;;;;;;;7.87;7.27;;;22.60;99.90;;;;;;10495760;28;20222;-81
2021/09/05 10:18:08;;;;;;;6.67;6.17;;;22.80;99.90;;;;;;10478182;28;20205;-81
2021/09/05 10:23:12;;;;;;;7.33;6.23;;;22.80;99.90;;;;;;10497181;28;20209;-80
2021/09/05 10:28:33;;;;;;;6.70;6.10;;;22.80;99.90;;;;;;10486141;28;20207;-81
2021/09/05 10:33:38;;;;;;;6.40;5.90;;;22.80;99.90;;;;;;10493428;28;20216;-82
2021/09/05 10:38:41;;;;;;;8.20;7.57;;;22.80;99.90;;;;;;10496521;28;20313;-81
2021/09/05 10:44:07;;;;;;;7.73;7.03;;;22.60;99.90;;;;;;10477485;28;20248;-81
2021/09/05 10:49:11;;;;;;;6.53;6.03;;;22.60;99.60;;;;;;10482279;28;20595;-81
2021/09/05 10:54:22;;;;;;;7.17;6.47;;;22.40;99.90;;;;;;10422883;28;20222;-82
2021/09/05 10:59:25;;;;;;;6.33;5.83;;;22.30;99.90;;;;;;10439678;28;20289;-82
2021/09/05 11:04:30;;;;;;;6.00;5.60;;;22.20;99.90;;;;;;10438327;28;20679;-81
2021/09/05 11:09:47;;;;;;;6.73;6.23;;;22.20;99.90;;;;;;10440233;28;20205;-82
2021/09/05 11:14:57;;;;;;;5.80;5.40;;;22.10;99.90;;;;;;10465950;28;20232;-81
2021/09/05 11:20:03;;;;;;;8.07;6.33;;;22.00;99.90;;;;;;10499143;28;20213;-81
2021/09/05 11:25:09;;;;;;;7.00;6.50;;;21.90;99.90;;;;;;10494514;28;20232;-81
2021/09/05 11:30:12;;;;;;;6.50;6.10;;;21.80;99.90;;;;;;10495484;28;20204;-81
2021/09/05 11:35:16;;;;;;;7.03;6.53;;;21.70;99.90;;;;;;10499121;28;20723;-81
2021/09/05 11:40:20;;;;;;;6.40;5.90;;;21.60;99.90;;;;;;10494348;28;20739;-81
2021/09/05 11:45:25;;;;;;;6.57;6.07;;;21.60;99.90;;;;;;10457947;28;20240;-81
2021/09/05 11:50:29;;;;;;;8.10;6.23;;;21.60;98.70;;;;;;10489156;28;20271;-81
2021/09/05 11:55:32;;;;;;;7.00;6.50;;;21.60;99.90;;;;;;10501797;28;20695;-81
2021/09/05 12:00:36;;;;;;;6.60;6.00;;;21.60;99.90;;;;;;10521219;28;20200;-80
2021/09/05 12:05:41;;;;;;;6.20;5.80;;;21.60;99.90;;;;;;10500259;28;20238;-81
2021/09/05 12:10:46;;;;;;;6.87;6.13;;;21.60;99.90;;;;;;10493536;28;20489;-81
2021/09/05 12:15:49;;;;;;;6.20;5.60;;;21.60;99.90;;;;;;10476867;22;20234;-82
2021/09/05 12:20:55;;;;;;;6.63;6.10;;;21.50;99.90;;;;;;10450339;28;20205;-82
2021/09/05 12:26:01;;;;;;;6.40;5.90;;;21.50;99.90;;;;;;10467858;28;20255;-82
2021/09/05 12:31:05;;;;;;;6.10;5.70;;;21.60;99.90;;;;;;10474390;28;20204;-82
2021/09/05 12:36:18;;;;;;;6.50;6.00;;;21.70;99.90;;;;;;10503082;28;20303;-82
2021/09/05 12:41:24;;;;;;;5.90;5.50;;;21.90;99.90;;;;;;10501243;28;20193;-82
2021/09/05 12:46:37;;;;;;;6.63;6.13;;;22.20;99.90;;;;;;10478031;28;20232;-82
2021/09/05 12:51:49;;;;;;;6.30;5.80;;;22.40;99.90;;;;;;10449664;28;20564;-82
2021/09/05 12:56:52;;;;;;;5.97;5.57;;;22.50;99.90;;;;;;10443532;28;20584;-82
2021/09/05 13:01:56;;;;;;;5.83;5.40;;;22.50;99.90;;;;;;10442269;28;20209;-81
2021/09/05 13:07:00;;;;;;;6.03;5.60;;;22.50;98.40;;;;;;10472196;28;20224;-81
2021/09/05 13:12:02;;;;;;;5.50;5.10;;;22.60;98.20;;;;;;10498842;28;20220;-82
2021/09/05 13:17:04;;;;;;;6.50;5.90;;;22.50;99.90;;;;;;10350548;28;20307;-82
2021/09/05 13:22:10;;;;;;;6.27;5.80;;;22.40;99.90;;;;;;10356090;28;20303;-82
2021/09/05 13:27:13;;;;;;;6.17;5.57;;;22.40;99.00;;;;;;10358827;28;20236;-81
2021/09/05 13:32:16;;;;;;;6.10;5.70;;;22.30;99.90;;;;;;10359231;28;20280;-82
2021/09/05 13:37:20;;;;;;;5.60;5.20;;;22.30;97.00;;;;;;10385504;28;20219;-82
2021/09/05 13:42:23;;;;;;;5.87;5.47;;;22.40;99.80;;;;;;10431038;28;20295;-82
2021/09/05 13:47:26;;;;;;;6.10;5.60;;;22.40;97.50;;;;;;10456773;28;20228;-82
2021/09/05 13:52:33;;;;;;;6.10;5.60;;;22.40;99.90;;;;;;10417258;28;20583;-82
2021/09/05 13:57:35;;;;;;;6.63;6.07;;;22.40;99.90;;;;;;10410713;28;20226;-82
2021/09/05 14:02:37;;;;;;;5.60;5.20;;;22.30;99.90;;;;;;10366350;28;20196;-82
2021/09/05 14:07:42;;;;;;;5.80;5.40;;;22.20;99.90;;;;;;10363517;28;20631;-82
2021/09/05 14:12:44;;;;;;;5.90;5.20;;;22.30;98.10;;;;;;10365379;28;20226;-82
2021/09/05 14:17:48;;;;;;;5.63;5.20;;;22.30;99.90;;;;;;10363369;28;20200;-82
2021/09/05 14:22:53;;;;;;;5.67;5.27;;;22.30;99.90;;;;;;10289650;28;20249;-82
2021/09/05 14:27:58;;;;;;;5.37;4.97;;;22.20;97.80;;;;;;10354242;28;20223;-82
2021/09/05 14:49:05;;;;;;;5.57;5.17;;;22.30;99.90;;;;;;10348368;28;20219;-81
2021/09/05 14:54:41;;;;;;;5.23;4.83;;;22.20;99.90;;;;;;10337672;28;20263;-81
2021/09/05 14:59:46;;;;;;;5.30;4.90;;;22.30;99.90;;;;;;10347644;28;20550;-81
2021/09/05 15:05:17;;;;;;;4.77;4.47;;;22.40;96.40;;;;;;10330865;28;20208;-81
2021/09/05 15:15:41;;;;;;;5.00;4.60;;;22.60;95.90;;;;;;10367670;28;20219;-81
2021/09/05 15:20:45;;;;;;;4.90;4.50;;;22.60;95.00;;;;;;10370664;28;20241;-81
2021/09/05 15:25:48;;;;;;;5.30;4.90;;;22.60;94.70;;;;;;10321768;28;20223;-81
2021/09/05 15:30:56;;;;;;;4.77;4.37;;;22.60;98.00;;;;;;10332216;28;20291;-82
2021/09/05 15:51:58;;;;;;;5.73;4.43;;;22.10;99.90;;;;;;10356883;28;20218;-81
2021/09/05 15:57:04;;;;;;;4.60;4.30;;;22.00;99.90;;;;;;10321646;28;20211;-81
2021/09/05 16:02:12;;;;;;;5.03;4.63;;;22.00;98.50;;;;;;10338503;28;20275;-81
2021/09/05 16:17:46;;;;;;;5.50;4.87;;;22.00;99.60;;;;;;10464701;28;20242;-82
2021/09/05 16:22:49;;;;;;;4.80;4.40;;;22.00;98.00;;;;;;10297596;28;20180;-82
2021/09/05 16:27:53;;;;;;;4.90;4.50;;;22.10;98.30;;;;;;10489560;28;20311;-82
2021/09/05 16:33:12;;;;;;;5.20;4.63;;;22.20;99.30;;;;;;10489008;28;20240;-82
2021/09/05 16:38:27;;;;;;;5.20;4.80;;;22.20;99.90;;;;;;10507324;28;20188;-82
2021/09/05 16:43:30;;;;;;;5.07;4.67;;;22.20;98.60;;;;;;10488947;28;20217;-82
2021/09/05 16:48:33;;;;;;;5.77;5.27;;;22.20;98.10;;;;;;10357673;28;20236;-82
2021/09/05 16:53:37;;;;;;;5.30;4.90;;;22.30;97.60;;;;;;10403628;28;20269;-82
2021/09/05 16:58:40;;;;;;;5.30;4.90;;;22.40;97.70;;;;;;10347375;28;20671;-82
2021/09/05 17:03:43;;;;;;;5.30;4.80;;;22.40;98.30;;;;;;10364459;28;20320;-82
2021/09/05 17:08:46;;;;;;;5.03;4.63;;;22.40;98.20;;;;;;10346789;28;20236;-82
2021/09/05 17:13:50;;;;;;;5.40;5.00;;;22.30;99.10;;;;;;10348539;28;20240;-81
2021/09/05 17:18:52;;;;;;;5.70;4.83;;;22.30;98.90;;;;;;10367912;28;20207;-82
2021/09/05 17:23:55;;;;;;;5.87;5.37;;;22.20;99.40;;;;;;10359733;28;20231;-82
2021/09/05 17:28:58;;;;;;;4.90;4.60;;;22.10;99.20;;;;;;10343915;28;20228;-83
2021/09/05 17:34:01;;;;;;;5.10;4.70;;;21.90;99.90;;;;;;10362366;28;20658;-83
2021/09/05 17:39:06;;;;;;;5.40;5.00;;;21.70;99.90;;;;;;10403368;28;20687;-83
2021/09/05 17:44:10;;;;;;;5.53;5.13;;;21.50;99.90;;;;;;10470518;28;20661;-83
2021/09/05 17:49:12;;;;;;;5.23;4.83;;;21.40;99.90;;;;;;10421560;28;20736;-82
2021/09/05 17:54:15;;;;;;;5.60;5.10;;;21.20;99.90;;;;;;10376016;28;20227;-83
2021/09/05 17:59:19;;;;;;;5.70;5.23;;;21.10;99.90;;;;;;10344002;28;20204;-82
2021/09/05 18:04:22;;;;;;;5.77;5.27;;;21.00;99.90;;;;;;10357976;28;20244;-83
2021/09/05 18:09:25;;;;;;;5.67;5.27;;;20.90;99.90;;;;;;10360586;28;20204;-82
2021/09/05 18:14:30;;;;;;;5.90;5.40;;;20.80;99.90;;;;;;10427094;23;20232;-82
2021/09/05 18:19:33;;;;;;;6.37;5.80;;;20.70;99.90;;;;;;10388061;28;20214;-82
2021/09/05 18:24:35;;;;;;;6.80;6.20;;;20.70;99.90;;;;;;10347556;28;20226;-82
2021/09/05 18:29:39;;;;;;;6.77;5.63;;;20.60;99.90;;;;;;10349129;28;20719;-81
2021/09/05 18:34:41;;;;;;;6.40;5.90;;;20.60;99.90;;;;;;10424485;28;20305;-82
2021/09/05 18:39:43;;;;;;;5.90;5.40;;;20.50;99.90;;;;;;10346965;28;20280;-82
2021/09/05 18:44:49;;;;;;;5.97;5.40;;;20.50;99.90;;;;;;10357792;28;20697;-81
2021/09/05 18:49:51;;;;;;;6.70;6.10;;;20.40;99.90;;;;;;10355891;28;20338;-82
2021/09/05 18:54:54;;;;;;;13.50;12.20;;;20.30;99.90;;;;;;10376416;28;20656;-82
2021/09/05 18:59:57;;;;;;;9.63;8.83;;;20.30;99.90;;;;;;10340310;28;20206;-82
2021/09/05 19:05:00;;;;;;;7.93;7.13;;;20.30;99.90;;;;;;10353333;28;20625;-82
2021/09/05 19:10:08;;;;;;;7.23;6.63;;;20.30;99.90;;;;;;10391502;28;20214;-82
2021/09/05 19:15:13;;;;;;;8.10;5.73;;;20.20;99.90;;;;;;10408227;28;20254;-82
2021/09/05 19:20:17;;;;;;;6.73;6.13;;;20.10;99.90;;;;;;10519493;28;20211;-82
2021/09/05 19:25:20;;;;;;;7.40;6.80;;;20.00;99.90;;;;;;10549211;28;20578;-81
2021/09/05 19:30:24;;;;;;;6.87;6.27;;;19.90;99.90;;;;;;10530545;28;20263;-82
2021/09/05 19:35:27;;;;;;;6.47;5.97;;;19.90;99.90;;;;;;10528541;28;20231;-82
2021/09/05 19:40:29;;;;;;;7.00;6.50;;;19.90;99.90;;;;;;10508244;28;20271;-82
2021/09/05 19:45:36;;;;;;;6.40;5.90;;;19.80;99.90;;;;;;10523815;28;20719;-83
2021/09/05 19:50:38;;;;;;;7.37;6.77;;;19.80;99.90;;;;;;10479009;28;20220;-82
2021/09/05 19:55:41;;;;;;;6.80;6.30;;;19.80;99.90;;;;;;10485681;28;20221;-81
2021/09/05 20:00:48;;;;;;;6.73;6.13;;;19.80;99.90;;;;;;10329958;28;20208;-82
2021/09/05 20:05:51;;;;;;;6.50;5.97;;;19.70;99.90;;;;;;10358751;28;20679;-82
2021/09/05 20:10:53;;;;;;;7.97;7.23;;;19.70;99.90;;;;;;10330098;28;20730;-81
2021/09/05 20:15:58;;;;;;;7.60;7.03;;;19.60;99.90;;;;;;10405404;28;20234;-82
2021/09/05 20:21:02;;;;;;;7.57;6.87;;;19.60;99.90;;;;;;10371964;28;20275;-83
2021/09/05 20:26:05;;;;;;;7.30;6.80;;;19.60;99.90;;;;;;10309232;28;20782;-81
2021/09/05 20:31:08;;;;;;;7.70;7.00;;;19.60;99.90;;;;;;10353879;28;20216;-82
2021/09/05 20:36:11;;;;;;;6.97;6.37;;;19.60;99.90;;;;;;10362663;28;20223;-81
2021/09/05 20:41:13;;;;;;;7.30;6.70;;;19.50;99.90;;;;;;10322597;28;20298;-82
2021/09/05 20:46:16;;;;;;;7.20;6.60;;;19.50;99.90;;;;;;10459595;28;20247;-82
2021/09/05 20:51:19;;;;;;;7.30;6.70;;;19.50;99.90;;;;;;10528317;28;20235;-82
2021/09/05 20:56:21;;;;;;;7.47;6.63;;;19.40;99.90;;;;;;10518234;28;20220;-82
2021/09/05 21:01:24;;;;;;;7.70;7.00;;;19.30;99.90;;;;;;10531878;28;20223;-81
2021/09/05 21:06:26;;;;;;;6.80;6.27;;;19.30;99.90;;;;;;10448173;28;20279;-82
2021/09/05 21:11:28;;;;;;;7.60;7.00;;;19.20;99.90;;;;;;10370188;28;20206;-81
2021/09/05 21:16:32;;;;;;;7.20;6.60;;;19.10;99.90;;;;;;10330148;28;20238;-81
2021/09/05 21:21:34;;;;;;;8.20;6.97;;;19.10;99.90;;;;;;10383301;28;20257;-81
2021/09/05 21:26:37;;;;;;;7.00;6.50;;;19.00;99.90;;;;;;10420523;28;20219;-81
2021/09/05 21:31:40;;;;;;;7.33;6.70;;;19.00;99.90;;;;;;10532080;28;20267;-81
2021/09/05 21:36:42;;;;;;;7.27;6.67;;;18.90;99.90;;;;;;10372065;28;20322;-81
2021/09/05 21:41:44;;;;;;;7.00;6.50;;;18.90;99.90;;;;;;10369692;28;20206;-81
2021/09/05 21:46:47;;;;;;;8.20;7.40;;;18.80;99.90;;;;;;10342842;28;20729;-81
2021/09/05 21:51:50;;;;;;;7.90;7.20;;;18.80;99.90;;;;;;10353800;28;20698;-81
2021/09/05 21:56:52;;;;;;;8.17;7.47;;;18.70;99.90;;;;;;10385645;28;20630;-81
2021/09/05 22:01:55;;;;;;;8.30;7.60;;;18.70;99.90;;;;;;10442255;28;20210;-81
2021/09/05 22:06:57;;;;;;;12.10;8.00;;;18.70;99.90;;;;;;10438521;28;20226;-80
2021/09/05 22:11:59;;;;;;;8.33;7.63;;;18.60;99.90;;;;;;10466225;28;20192;-81
2021/09/05 22:17:03;;;;;;;9.03;8.33;;;18.60;99.90;;;;;;10467541;28;20231;-81
2021/09/05 22:22:05;;;;;;;8.67;7.97;;;18.60;99.90;;;;;;10446061;28;20302;-81
2021/09/05 22:27:08;;;;;;;8.67;7.97;;;18.50;99.90;;;;;;10477579;28;20704;-81
2021/09/05 22:32:11;;;;;;;8.30;7.70;;;18.40;99.90;;;;;;10441523;28;20714;-81
2021/09/05 22:37:18;;;;;;;9.60;7.43;;;18.40;99.90;;;;;;10503014;28;20216;-81
2021/09/05 22:42:21;;;;;;;8.80;8.00;;;18.40;99.90;;;;;;10391522;28;20206;-81
2021/09/05 22:47:24;;;;;;;8.57;7.80;;;18.40;99.90;;;;;;10375618;28;20223;-80
2021/09/05 22:52:26;;;;;;;7.90;7.30;;;18.30;99.90;;;;;;10359751;28;20200;-81
2021/09/05 22:57:28;;;;;;;8.83;8.13;;;18.30;99.90;;;;;;10306706;28;20226;-81
2021/09/05 23:02:31;;;;;;;8.33;7.60;;;18.20;99.90;;;;;;10305308;28;20212;-81
2021/09/05 23:07:34;;;;;;;8.50;7.80;;;18.20;99.90;;;;;;10372161;28;20252;-81
2021/09/05 23:12:40;;;;;;;7.90;7.30;;;18.20;99.90;;;;;;10372879;28;20667;-81
2021/09/05 23:17:43;;;;;;;8.63;8.03;;;18.20;99.90;;;;;;10358776;28;20235;-81
2021/09/05 23:22:46;;;;;;;8.33;7.60;;;18.10;99.90;;;;;;10379207;28;20192;-81
2021/09/05 23:27:48;;;;;;;8.47;7.77;;;18.10;99.90;;;;;;10357067;28;20715;-81
2021/09/05 23:32:51;;;;;;;8.40;7.70;;;18.10;99.90;;;;;;10377574;28;20613;-81
2021/09/05 23:37:53;;;;;;;9.20;8.47;;;18.00;99.90;;;;;;10373277;28;20703;-81
2021/09/05 23:42:56;;;;;;;8.40;7.67;;;17.90;99.90;;;;;;10386170;28;20226;-81
2021/09/05 23:47:59;;;;;;;8.93;8.03;;;17.90;99.90;;;;;;10449336;28;20224;-81
2021/09/05 23:53:01;;;;;;;7.50;7.00;;;17.90;99.90;;;;;;10478239;28;20571;-80
2021/09/05 23:58:03;;;;;;;8.63;7.90;;;17.90;99.90;;;;;;10542199;28;20236;-81
